Time;durP1;ratioP1;P1;durP2;ratioP2;P2;SDS_P1;SDS_P2;PMS_P1;PMS_P2;Temp;Humidity;BMP_temperature;BMP_pressure;BME280_temperature;BME280_humidity;BME280_pressure;Samples;Min_cycle;Max_cycle;Signal;HPM_P1;HPM_P2
2023/01/26 00:01:14;;;;;;;390.60;81.13;;;;;;;-1.55;100.00;102089.38;5056018;28;20013;-74
2023/01/26 00:03:40;;;;;;;396.25;84.68;;;;;;;-1.47;100.00;102087.34;5045597;28;20060;-74
2023/01/26 00:06:07;;;;;;;430.27;89.97;;;;;;;-1.59;100.00;102093.06;5053395;28;20024;-74
2023/01/26 00:08:41;;;;;;;354.40;76.90;;;;;;;-1.63;100.00;102091.44;5069794;28;20028;-73
2023/01/26 00:11:08;;;;;;;352.60;77.37;;;;;;;-1.35;100.00;102085.19;5056735;28;20060;-74
2023/01/26 00:13:34;;;;;;;406.53;84.73;;;;;;;-1.43;100.00;102078.34;5081931;28;20029;-73
2023/01/26 00:16:01;;;;;;;421.20;83.60;;;;;;;-1.32;100.00;102074.44;5046913;28;20087;-74
2023/01/26 00:18:27;;;;;;;413.47;82.43;;;;;;;-1.61;100.00;102084.28;5071316;28;20020;-74
2023/01/26 00:21:01;;;;;;;442.03;85.70;;;;;;;-1.51;100.00;102068.88;5063026;28;20113;-74
2023/01/26 00:23:28;;;;;;;378.40;80.23;;;;;;;-1.27;100.00;102077.81;5063473;28;20051;-74
2023/01/26 00:25:54;;;;;;;361.53;78.50;;;;;;;-1.25;100.00;102065.34;5063552;28;20114;-74
2023/01/26 00:28:20;;;;;;;367.50;77.80;;;;;;;-1.28;100.00;102066.34;5056383;28;20032;-75
2023/01/26 00:30:45;;;;;;;311.37;72.80;;;;;;;-1.04;100.00;102064.59;5054192;28;20120;-74
2023/01/26 00:33:10;;;;;;;381.90;75.93;;;;;;;-1.02;100.00;102062.75;5061755;28;20508;-74
2023/01/26 00:35:36;;;;;;;346.77;77.37;;;;;;;-1.16;100.00;102059.72;5041738;28;20136;-74
2023/01/26 00:38:01;;;;;;;417.60;79.90;;;;;;;-1.02;100.00;102057.44;5047409;28;20020;-74
2023/01/26 00:40:27;;;;;;;321.53;72.70;;;;;;;-1.19;100.00;102054.50;5046579;28;20108;-74
2023/01/26 00:42:53;;;;;;;368.67;78.40;;;;;;;-1.15;100.00;102045.50;5062403;28;20051;-74
2023/01/26 00:45:21;;;;;;;361.30;79.57;;;;;;;-1.33;100.00;102051.47;5052853;28;20036;-74
2023/01/26 00:47:47;;;;;;;327.50;73.90;;;;;;;-1.25;100.00;102044.09;5073869;28;20023;-74
2023/01/26 00:50:13;;;;;;;345.53;75.70;;;;;;;-1.15;100.00;102045.50;5062819;28;20041;-74
2023/01/26 00:52:38;;;;;;;266.80;67.10;;;;;;;-1.15;100.00;102046.38;5089556;28;20024;-74
2023/01/26 00:55:04;;;;;;;302.60;70.70;;;;;;;-1.18;100.00;102041.16;5062674;28;20079;-74
2023/01/26 00:57:30;;;;;;;348.07;76.20;;;;;;;-1.12;100.00;102035.63;5062729;28;20028;-72
2023/01/26 00:59:55;;;;;;;344.87;74.03;;;;;;;-1.10;100.00;102035.59;5061737;28;20037;-73
2023/01/26 01:02:21;;;;;;;379.00;79.47;;;;;;;-1.07;100.00;102038.13;5047772;28;20025;-73
2023/01/26 01:04:46;;;;;;;285.60;68.67;;;;;;;-0.92;100.00;102037.56;5049922;28;20134;-73
2023/01/26 01:07:11;;;;;;;377.87;77.90;;;;;;;-1.30;100.00;102030.13;5045097;28;20504;-73
2023/01/26 01:09:37;;;;;;;362.73;76.47;;;;;;;-1.33;100.00;102025.75;5062112;28;20118;-73
2023/01/26 01:12:02;;;;;;;371.60;77.50;;;;;;;-1.24;100.00;102019.25;5088226;28;20027;-73
2023/01/26 01:14:28;;;;;;;353.27;77.70;;;;;;;-1.11;100.00;102023.19;5053424;28;20130;-74
2023/01/26 01:16:53;;;;;;;298.47;69.30;;;;;;;-0.91;100.00;102023.38;5064230;28;20063;-73
2023/01/26 01:19:19;;;;;;;290.90;64.27;;;;;;;-1.02;100.00;102025.53;5065169;28;20039;-74
2023/01/26 01:21:44;;;;;;;357.53;75.87;;;;;;;-1.23;100.00;102015.69;5061979;28;20016;-74
2023/01/26 01:24:11;;;;;;;346.57;70.97;;;;;;;-1.08;100.00;102019.59;5051517;28;20062;-75
2023/01/26 01:26:38;;;;;;;355.17;76.13;;;;;;;-1.03;100.00;102013.19;5082761;28;20021;-74
2023/01/26 01:29:03;;;;;;;306.77;69.47;;;;;;;-1.15;100.00;102008.31;5072743;28;20058;-74
2023/01/26 01:31:29;;;;;;;301.80;66.90;;;;;;;-1.18;100.00;102013.72;5060961;28;20116;-74
2023/01/26 01:33:55;;;;;;;350.47;71.47;;;;;;;-1.14;100.00;102010.03;5055949;28;20033;-74
2023/01/26 01:36:21;;;;;;;318.40;70.07;;;;;;;-1.17;100.00;102010.16;5037130;28;20032;-75
2023/01/26 01:38:47;;;;;;;280.43;66.83;;;;;;;-0.88;100.00;102012.59;5069707;28;20029;-74
2023/01/26 01:41:15;;;;;;;256.77;60.90;;;;;;;-1.03;100.00;102018.50;5062816;28;20024;-75
2023/01/26 01:43:41;;;;;;;337.23;71.50;;;;;;;-1.06;100.00;102013.28;5068511;28;20028;-74
2023/01/26 01:46:11;;;;;;;309.53;68.57;;;;;;;-1.14;100.00;102004.72;5073571;28;20053;-74
2023/01/26 01:48:57;;;;;;;370.57;77.30;;;;;;;-0.96;100.00;102009.38;5056881;28;20078;-74
2023/01/26 01:51:32;;;;;;;335.53;68.20;;;;;;;-1.26;100.00;102010.47;5054407;28;20492;-74
2023/01/26 01:54:00;;;;;;;246.60;60.20;;;;;;;-1.17;100.00;102015.47;5058623;28;20029;-74
2023/01/26 01:56:28;;;;;;;243.67;60.63;;;;;;;-1.31;100.00;102009.75;5081545;28;20031;-75
2023/01/26 01:58:57;;;;;;;305.13;67.40;;;;;;;-1.13;100.00;102017.06;5065591;28;20031;-74
2023/01/26 02:01:23;;;;;;;326.85;68.30;;;;;;;-1.05;100.00;102012.34;5058909;28;20016;-74
2023/01/26 02:03:53;;;;;;;305.80;68.00;;;;;;;-0.99;100.00;102009.47;5060632;28;20431;-74
2023/01/26 02:06:25;;;;;;;308.80;70.90;;;;;;;-1.11;100.00;102004.59;5047464;28;20042;-74
2023/01/26 02:08:53;;;;;;;294.90;62.00;;;;;;;-1.01;100.00;102008.66;5050771;28;20062;-74
2023/01/26 02:11:27;;;;;;;281.20;66.20;;;;;;;-1.13;100.00;101999.34;5073052;28;20025;-74
2023/01/26 02:13:53;;;;;;;295.03;61.80;;;;;;;-1.10;100.00;102001.03;5076950;28;20056;-74
2023/01/26 02:16:19;;;;;;;281.77;62.83;;;;;;;-1.11;100.00;101999.28;5047154;28;20032;-75
2023/01/26 02:18:45;;;;;;;262.50;62.27;;;;;;;-1.15;100.00;101998.53;5034506;28;20037;-75
2023/01/26 02:21:14;;;;;;;244.13;58.33;;;;;;;-1.34;100.00;101996.59;5072440;28;20035;-74
2023/01/26 02:23:48;;;;;;;301.90;68.77;;;;;;;-1.37;100.00;101998.44;5063718;28;20028;-74
2023/01/26 02:26:20;;;;;;;334.67;73.27;;;;;;;-1.40;100.00;101995.03;5039979;28;20072;-74
2023/01/26 02:28:47;;;;;;;305.77;69.23;;;;;;;-1.26;100.00;101999.84;5057576;28;20365;-75
2023/01/26 02:31:13;;;;;;;262.70;61.50;;;;;;;-1.24;100.00;101998.00;5052893;28;20028;-75
2023/01/26 02:33:39;;;;;;;289.63;62.50;;;;;;;-1.14;100.00;101991.44;5052018;28;20092;-74
2023/01/26 02:36:07;;;;;;;354.83;72.50;;;;;;;-1.21;100.00;101992.59;5061289;28;20028;-73
2023/01/26 02:38:39;;;;;;;331.40;69.63;;;;;;;-1.26;100.00;101989.22;5053038;28;20040;-74
2023/01/26 02:41:11;;;;;;;419.27;78.17;;;;;;;-1.14;100.00;101994.09;5056964;28;20047;-73
2023/01/26 02:43:36;;;;;;;266.10;61.57;;;;;;;-0.96;100.00;101985.44;5083488;28;20059;-74
2023/01/26 02:46:02;;;;;;;359.33;76.63;;;;;;;-1.24;100.00;101971.41;5079322;28;20032;-73
2023/01/26 02:51:11;;;;;;;314.33;68.43;;;;;;;-0.70;100.00;101967.66;5063223;28;20048;-73
2023/01/26 02:53:37;;;;;;;270.70;63.80;;;;;;;-0.73;100.00;101967.75;5070643;28;20028;-74
2023/01/26 02:56:02;;;;;;;305.13;68.97;;;;;;;-0.88;100.00;101964.75;5062791;28;20040;-74
2023/01/26 02:58:28;;;;;;;223.90;55.47;;;;;;;-1.00;100.00;101964.34;5061891;28;20112;-74
2023/01/26 03:00:53;;;;;;;279.83;62.97;;;;;;;-0.99;100.00;101966.94;5043991;28;20052;-73
2023/01/26 03:03:23;;;;;;;279.37;63.87;;;;;;;-0.87;100.00;101966.47;5076269;28;20028;-73
2023/01/26 03:05:49;;;;;;;259.23;61.50;;;;;;;-0.73;100.00;101962.44;5045624;28;20044;-74
2023/01/26 03:08:15;;;;;;;298.57;68.23;;;;;;;-0.82;100.00;101969.84;5070269;28;20039;-74
2023/01/26 03:10:40;;;;;;;260.77;63.83;;;;;;;-0.92;100.00;101957.81;5059461;28;20043;-74
2023/01/26 03:13:06;;;;;;;252.57;58.60;;;;;;;-0.89;100.00;101957.72;5073848;28;20115;-74
2023/01/26 03:15:41;;;;;;;267.07;61.83;;;;;;;-1.06;100.00;101954.81;5041200;28;20065;-74
2023/01/26 03:27:25;;;;;;;254.97;62.10;;;;;;;-0.86;100.00;101960.22;5048862;28;20181;-74
2023/01/26 03:29:15;;;;;;;235.47;57.00;;;;;;;-0.70;100.00;101951.69;5054673;28;20059;-73
2023/01/26 03:31:40;;;;;;;270.10;63.17;;;;;;;-0.77;100.00;101944.88;5044340;28;20536;-73
2023/01/26 03:34:05;;;;;;;227.50;58.50;;;;;;;-0.71;100.00;101952.63;5051608;28;20025;-74
2023/01/26 03:36:31;;;;;;;228.57;57.77;;;;;;;-0.89;100.00;101946.22;5046938;28;20028;-74
2023/01/26 03:38:56;;;;;;;221.03;54.10;;;;;;;-0.68;100.00;101940.03;5037173;28;20151;-73
2023/01/26 03:57:47;;;;;;;240.23;58.77;;;;;;;-0.63;100.00;101937.22;5073581;28;20044;-74
2023/01/26 04:00:13;;;;;;;199.13;54.23;;;;;;;-0.51;100.00;101936.75;5085381;28;20123;-75
2023/01/26 04:08:19;;;;;;;216.47;52.03;;;;;;;-0.37;100.00;101939.72;5070080;28;20154;-74
2023/01/26 04:10:44;;;;;;;198.30;51.73;;;;;;;-0.01;100.00;101931.13;5043327;28;20039;-74
2023/01/26 04:21:32;;;;;;;246.37;56.10;;;;;;;-0.27;100.00;101930.41;5064887;28;20031;-74
2023/01/26 04:23:58;;;;;;;227.20;54.73;;;;;;;-0.05;100.00;101929.53;5063329;28;20055;-74
2023/01/26 04:26:25;;;;;;;231.97;56.73;;;;;;;-0.04;100.00;101931.25;5063374;28;20024;-74
2023/01/26 04:28:51;;;;;;;212.40;51.90;;;;;;;0.03;100.00;101938.06;5058270;28;20067;-73
2023/01/26 04:31:17;;;;;;;196.33;50.63;;;;;;;-0.19;100.00;101931.91;5051082;28;20480;-75
2023/01/26 04:33:42;;;;;;;227.93;54.93;;;;;;;-0.15;100.00;101938.81;5053384;28;20427;-75
2023/01/26 04:36:09;;;;;;;241.30;56.67;;;;;;;-0.19;100.00;101931.91;5054460;28;20094;-75
2023/01/26 04:38:35;;;;;;;214.03;53.93;;;;;;;-0.02;100.00;101934.72;5061673;28;20017;-75
2023/01/26 04:41:00;;;;;;;191.27;51.53;;;;;;;0.21;100.00;101926.63;5052325;28;20032;-75
2023/01/26 04:43:26;;;;;;;271.60;60.57;;;;;;;-0.26;100.00;101925.97;5071525;28;20021;-75
2023/01/26 04:45:58;;;;;;;279.20;60.87;;;;;;;-0.08;100.00;101924.31;5062228;28;20083;-75
2023/01/26 04:48:24;;;;;;;184.17;47.47;;;;;;;-0.03;100.00;101927.66;5061467;28;20042;-74
2023/01/26 04:50:58;;;;;;;269.23;57.70;;;;;;;0.17;100.00;101925.00;5060078;28;20119;-74
2023/01/26 04:53:24;;;;;;;238.77;56.00;;;;;;;0.04;100.00;101923.81;5087089;28;20034;-75
2023/01/26 04:55:49;;;;;;;255.00;59.20;;;;;;;0.05;100.00;101920.22;5060833;28;20036;-74
2023/01/26 04:58:14;;;;;;;244.40;57.33;;;;;;;0.03;100.00;101911.44;5082976;28;20031;-73
2023/01/26 05:00:40;;;;;;;288.93;61.77;;;;;;;0.04;100.00;101921.16;5064211;28;20039;-74
2023/01/26 05:03:05;;;;;;;267.80;60.67;;;;;;;-0.09;100.00;101914.59;5064614;28;20087;-74
2023/01/26 05:05:37;;;;;;;268.50;60.07;;;;;;;0.04;100.00;101920.28;5058597;28;20059;-75
2023/01/26 05:08:04;;;;;;;265.50;61.57;;;;;;;-0.05;100.00;101924.22;5055249;28;20028;-74
2023/01/26 05:10:30;;;;;;;215.77;51.90;;;;;;;-0.25;100.00;101910.88;5064898;28;20103;-74
2023/01/26 05:12:55;;;;;;;192.43;49.60;;;;;;;-0.51;100.00;101912.78;5055048;28;20098;-75
2023/01/26 05:15:21;;;;;;;184.00;46.83;;;;;;;-0.45;100.00;101904.56;5072181;28;20041;-75
2023/01/26 05:17:46;;;;;;;251.40;55.80;;;;;;;-0.30;100.00;101911.91;5055033;28;20027;-75
2023/01/26 05:20:12;;;;;;;284.80;59.53;;;;;;;-0.29;100.00;101905.66;5054381;28;20112;-76
2023/01/26 05:22:37;;;;;;;208.90;50.83;;;;;;;-0.11;100.00;101911.16;5054756;28;20020;-76
2023/01/26 05:25:03;;;;;;;182.87;47.03;;;;;;;-0.15;100.00;101912.19;5054370;28;20044;-76
2023/01/26 05:27:28;;;;;;;206.60;48.17;;;;;;;-0.09;100.00;101911.94;5055066;28;20119;-75
2023/01/26 05:29:58;;;;;;;253.67;56.03;;;;;;;-0.29;100.00;101904.78;5054041;28;20119;-76
2023/01/26 05:32:25;;;;;;;254.47;55.10;;;;;;;-0.34;100.00;101897.00;5054102;28;20024;-76
2023/01/26 05:34:51;;;;;;;219.20;51.93;;;;;;;-0.10;100.00;101904.91;5054471;28;20135;-76
2023/01/26 05:37:17;;;;;;;211.37;50.37;;;;;;;0.02;100.00;101899.06;5058025;28;20047;-76
2023/01/26 05:39:43;;;;;;;187.37;46.33;;;;;;;-0.06;100.00;101895.84;5073612;28;20119;-76
2023/01/26 05:42:10;;;;;;;231.80;52.57;;;;;;;-0.11;100.00;101905.81;5074566;28;20027;-76
2023/01/26 05:44:35;;;;;;;243.57;54.03;;;;;;;0.02;100.00;101904.38;5074014;28;20036;-76
2023/01/26 05:47:00;;;;;;;180.13;45.30;;;;;;;0.06;100.00;101902.44;5074017;28;20031;-76
2023/01/26 05:49:26;;;;;;;207.20;50.17;;;;;;;0.01;100.00;101902.66;5073633;28;20028;-76
2023/01/26 05:51:51;;;;;;;210.07;52.40;;;;;;;0.11;100.00;101903.97;5074131;28;20021;-76
2023/01/26 05:54:16;;;;;;;188.07;46.60;;;;;;;0.19;100.00;101901.84;5073788;28;20024;-75
2023/01/26 05:56:42;;;;;;;193.53;46.90;;;;;;;0.15;100.00;101905.59;5074492;28;20020;-74
2023/01/26 05:59:07;;;;;;;180.20;45.83;;;;;;;0.19;100.00;101916.94;5073592;28;20040;-74
2023/01/26 06:01:33;;;;;;;178.97;46.00;;;;;;;0.18;100.00;101905.44;5073996;28;20109;-75
2023/01/26 06:03:58;;;;;;;185.07;45.60;;;;;;;0.22;100.00;101909.72;5091931;28;20099;-75
2023/01/26 06:06:24;;;;;;;144.13;41.70;;;;;;;0.20;100.00;101908.06;5091480;28;20519;-75
2023/01/26 06:08:49;;;;;;;185.73;45.20;;;;;;;0.17;100.00;101914.38;5073606;28;20118;-75
2023/01/26 06:11:14;;;;;;;153.57;44.03;;;;;;;0.23;100.00;101919.44;5073422;28;20047;-74
2023/01/26 06:13:40;;;;;;;177.30;44.70;;;;;;;0.02;100.00;101915.03;5073639;28;20426;-75
2023/01/26 06:16:05;;;;;;;198.10;48.00;;;;;;;-0.06;100.00;101922.47;5073543;28;20020;-76
2023/01/26 06:18:31;;;;;;;159.67;41.90;;;;;;;0.07;100.00;101913.03;5073975;28;20032;-75
2023/01/26 06:20:59;;;;;;;139.40;39.90;;;;;;;0.24;100.00;101914.97;5073178;28;20416;-75
2023/01/26 06:23:25;;;;;;;125.40;38.50;;;;;;;0.08;100.00;101930.75;5073710;28;20028;-75
2023/01/26 06:25:51;;;;;;;155.20;41.03;;;;;;;0.03;100.00;101927.41;5073178;28;20107;-75
2023/01/26 06:28:18;;;;;;;179.50;45.43;;;;;;;-0.16;100.00;101926.44;5073538;28;20020;-74
2023/01/26 06:30:43;;;;;;;153.87;41.13;;;;;;;-0.08;100.00;101924.31;5072681;28;20119;-75
2023/01/26 06:33:09;;;;;;;171.87;44.57;;;;;;;-0.11;100.00;101929.78;5073924;28;20124;-75
2023/01/26 06:35:35;;;;;;;165.07;43.03;;;;;;;-0.02;100.00;101924.06;5073556;28;20032;-75
2023/01/26 06:38:00;;;;;;;136.53;40.60;;;;;;;0.03;100.00;101922.09;5074224;28;20089;-75
2023/01/26 06:40:26;;;;;;;166.63;43.97;;;;;;;-0.01;100.00;101915.13;5073543;28;20103;-76
2023/01/26 06:42:51;;;;;;;116.33;35.93;;;;;;;-0.05;100.00;101924.22;5073459;28;20080;-76
2023/01/26 06:45:19;;;;;;;99.27;33.27;;;;;;;-0.29;100.00;101926.94;5073260;28;20088;-76
2023/01/26 06:47:51;;;;;;;115.30;33.30;;;;;;;-0.19;100.00;101931.91;5073782;28;20032;-76
2023/01/26 06:50:25;;;;;;;90.33;30.43;;;;;;;-0.28;100.00;101934.00;5073492;28;20036;-75
2023/01/26 06:52:53;;;;;;;93.93;30.87;;;;;;;-0.28;100.00;101928.66;5073477;28;20028;-76
2023/01/26 06:55:30;;;;;;;98.67;30.60;;;;;;;-0.21;100.00;101917.78;5073380;28;20111;-75
2023/01/26 06:57:56;;;;;;;97.47;31.27;;;;;;;-0.11;100.00;101930.66;5074002;28;20473;-75
2023/01/26 07:00:21;;;;;;;105.83;33.23;;;;;;;-0.11;100.00;101935.09;5073479;28;20098;-75
2023/01/26 07:02:47;;;;;;;96.23;33.10;;;;;;;0.09;100.00;101932.47;5073472;28;20058;-75
2023/01/26 07:05:12;;;;;;;92.03;29.77;;;;;;;-0.02;100.00;101932.06;5073412;28;20067;-75
2023/01/26 07:07:38;;;;;;;101.83;31.13;;;;;;;0.08;100.00;101920.09;5073947;28;20024;-76
2023/01/26 07:10:06;;;;;;;109.27;32.03;;;;;;;0.06;100.00;101921.94;5073643;28;20032;-76
2023/01/26 07:12:43;;;;;;;126.97;35.33;;;;;;;-0.35;100.00;101927.19;5073678;28;20046;-75
2023/01/26 07:15:10;;;;;;;107.03;32.00;;;;;;;-0.10;100.00;101931.50;5074646;28;20036;-75
2023/01/26 07:17:36;;;;;;;107.17;32.37;;;;;;;0.05;100.00;101928.19;5077611;28;20028;-75
2023/01/26 07:20:02;;;;;;;106.23;31.07;;;;;;;0.07;100.00;101950.31;5076888;28;20043;-76
2023/01/26 07:22:27;;;;;;;113.90;33.70;;;;;;;0.11;100.00;101946.56;5077229;28;20119;-76
2023/01/26 07:24:53;;;;;;;108.53;33.20;;;;;;;0.30;100.00;101945.81;5076904;28;20032;-76
2023/01/26 07:27:18;;;;;;;104.73;30.83;;;;;;;0.44;100.00;101940.72;5077678;28;20035;-77
2023/01/26 07:29:45;;;;;;;90.23;28.23;;;;;;;0.32;100.00;101943.94;5077100;28;20039;-76
2023/01/26 07:32:10;;;;;;;98.70;30.87;;;;;;;0.11;100.00;101941.25;5077886;28;20084;-76
2023/01/26 07:34:36;;;;;;;80.40;27.27;;;;;;;0.09;100.00;101945.78;5076968;28;20131;-75
2023/01/26 07:37:01;;;;;;;87.50;31.30;;;;;;;0.33;100.00;101945.69;5068230;28;20064;-69
2023/01/26 07:39:27;;;;;;;75.83;26.43;;;;;;;0.53;100.00;101945.69;5053858;28;20093;-68
2023/01/26 07:41:52;;;;;;;88.30;28.47;;;;;;;0.52;100.00;101946.59;5064400;28;20035;-70
2023/01/26 07:44:17;;;;;;;98.00;28.43;;;;;;;0.42;100.00;101931.94;5046988;28;20483;-70
2023/01/26 07:46:43;;;;;;;85.20;28.87;;;;;;;0.54;100.00;101939.41;5052785;28;20028;-70
2023/01/26 07:49:10;;;;;;;105.67;32.63;;;;;;;0.45;100.00;101942.47;5055018;28;20110;-70
2023/01/26 07:51:36;;;;;;;82.13;27.80;;;;;;;0.38;100.00;101946.31;5042460;28;20179;-70
2023/01/26 07:54:02;;;;;;;86.53;30.17;;;;;;;0.23;100.00;101950.53;5052660;28;20036;-70
2023/01/26 07:56:27;;;;;;;101.60;31.43;;;;;;;-0.16;100.00;101955.72;5041711;28;20047;-70
2023/01/26 07:58:53;;;;;;;113.40;32.33;;;;;;;-0.13;100.00;101947.59;5053802;28;20039;-70
2023/01/26 08:01:20;;;;;;;96.87;29.07;;;;;;;0.20;100.00;101935.56;5032403;28;20019;-69
2023/01/26 08:03:49;;;;;;;128.83;34.87;;;;;;;0.13;100.00;101934.09;5036605;28;20025;-70
2023/01/26 08:06:16;;;;;;;101.43;31.03;;;;;;;0.18;100.00;101937.41;5038280;28;20021;-70
2023/01/26 08:08:41;;;;;;;121.17;35.03;;;;;;;0.39;100.00;101945.38;5048224;28;20107;-69
2023/01/26 08:11:08;;;;;;;132.20;37.83;;;;;;;-0.03;100.00;101948.97;5038197;28;20121;-70
2023/01/26 08:13:34;;;;;;;114.50;32.73;;;;;;;0.01;100.00;101955.03;5053321;28;20023;-69
2023/01/26 08:16:04;;;;;;;144.97;36.17;;;;;;;-0.02;100.00;101950.69;5045112;28;20452;-69
2023/01/26 08:18:30;;;;;;;131.03;35.53;;;;;;;0.18;100.00;101964.03;5046800;28;20024;-69
2023/01/26 08:20:55;;;;;;;134.67;36.10;;;;;;;0.17;100.00;101962.28;5049590;28;20033;-69
2023/01/26 08:23:21;;;;;;;148.07;35.97;;;;;;;0.19;100.00;101957.75;5024383;28;20028;-69
2023/01/26 08:25:46;;;;;;;105.30;30.93;;;;;;;-0.01;100.00;101968.38;5041875;28;20047;-69
2023/01/26 08:28:12;;;;;;;112.93;35.03;;;;;;;0.21;100.00;101969.25;5045726;28;20025;-68
2023/01/26 08:30:37;;;;;;;119.43;33.10;;;;;;;0.08;100.00;101968.03;5049272;28;20101;-68
2023/01/26 08:33:03;;;;;;;117.07;33.50;;;;;;;0.16;100.00;101971.22;5044807;28;20031;-68
2023/01/26 08:35:30;;;;;;;100.47;31.40;;;;;;;0.38;100.00;101970.31;5035945;28;20123;-68
2023/01/26 08:37:56;;;;;;;114.03;33.13;;;;;;;0.42;100.00;101966.59;5049716;28;20031;-68
2023/01/26 08:40:23;;;;;;;105.67;30.97;;;;;;;0.39;100.00;101962.28;5043880;28;20041;-68
2023/01/26 08:42:49;;;;;;;131.63;34.70;;;;;;;0.42;100.00;101966.59;5044513;28;20048;-67
2023/01/26 08:45:14;;;;;;;139.10;37.40;;;;;;;0.23;100.00;101967.38;5043272;28;20271;-68
2023/01/26 08:47:40;;;;;;;98.17;29.63;;;;;;;0.54;100.00;101971.38;5034637;28;20040;-68
2023/01/26 08:50:06;;;;;;;119.03;32.43;;;;;;;0.41;100.00;101970.19;5046543;28;20033;-68
2023/01/26 08:52:31;;;;;;;142.60;37.50;;;;;;;0.37;100.00;101974.75;5056239;28;20020;-67
2023/01/26 08:54:56;;;;;;;144.13;37.33;;;;;;;0.39;100.00;101970.25;5050455;28;20063;-67
2023/01/26 08:57:22;;;;;;;133.33;35.40;;;;;;;0.37;100.00;101963.25;5039287;28;20037;-68
2023/01/26 08:59:47;;;;;;;126.50;35.03;;;;;;;0.52;100.00;101963.47;5031204;28;20111;-67
2023/01/26 09:02:13;;;;;;;112.07;33.73;;;;;;;0.75;100.00;101969.56;5051608;28;20033;-68
2023/01/26 09:04:38;;;;;;;155.27;37.73;;;;;;;0.72;100.00;101959.91;5041507;28;20060;-68
2023/01/26 09:07:04;;;;;;;101.03;29.10;;;;;;;0.71;100.00;101957.28;5048725;28;20024;-67
2023/01/26 09:09:30;;;;;;;124.60;35.67;;;;;;;0.51;100.00;101960.84;5045558;28;20098;-69
2023/01/26 09:11:55;;;;;;;108.60;31.93;;;;;;;0.67;100.00;101959.25;5042932;28;20020;-69
2023/01/26 09:14:22;;;;;;;95.70;28.87;;;;;;;0.46;100.00;101957.53;5046353;28;20032;-68
2023/01/26 09:16:48;;;;;;;98.63;27.83;;;;;;;0.38;100.00;101960.50;5034592;28;20028;-67
2023/01/26 09:19:14;;;;;;;98.63;28.50;;;;;;;0.38;100.00;101954.31;5037423;28;20039;-69
2023/01/26 09:21:39;;;;;;;127.40;31.17;;;;;;;0.33;100.00;101959.00;5031923;28;20035;-66
2023/01/26 09:24:05;;;;;;;94.57;27.40;;;;;;;0.52;100.00;101954.56;5033814;28;20037;-67
2023/01/26 09:26:30;;;;;;;107.43;28.03;;;;;;;0.32;100.00;101967.91;5054751;28;20116;-67
2023/01/26 09:28:56;;;;;;;105.27;28.07;;;;;;;0.56;100.00;101953.53;5048592;28;20118;-67
2023/01/26 09:31:21;;;;;;;92.73;26.97;;;;;;;0.72;100.00;101951.94;5048654;28;20035;-69
2023/01/26 09:33:48;;;;;;;77.00;23.20;;;;;;;0.73;100.00;101944.78;5043467;28;20021;-68
2023/01/26 09:36:14;;;;;;;82.40;28.30;;;;;;;0.42;100.00;101939.94;5039869;28;20045;-68
2023/01/26 09:38:40;;;;;;;72.93;23.13;;;;;;;0.46;100.00;101941.56;5040517;28;20036;-67
2023/01/26 09:41:30;;;;;;;73.57;25.07;;;;;;;0.52;100.00;101962.56;5041090;28;20087;-67
2023/01/26 09:44:08;;;;;;;78.37;23.37;;;;;;;0.64;100.00;101956.72;5046141;28;20082;-68
2023/01/26 09:46:48;;;;;;;89.80;26.07;;;;;;;0.41;100.00;101943.53;5038745;28;20056;-67
2023/01/26 09:49:33;;;;;;;71.57;23.23;;;;;;;0.64;100.00;101940.72;5056346;28;20055;-68
2023/01/26 09:52:11;;;;;;;76.70;24.47;;;;;;;0.73;100.00;101948.31;5052595;28;20032;-68
2023/01/26 09:54:47;;;;;;;71.43;23.60;;;;;;;0.67;100.00;101939.72;5049507;28;20044;-68
2023/01/26 09:57:31;;;;;;;77.50;24.27;;;;;;;0.97;100.00;101948.13;5047019;28;20120;-68
2023/01/26 10:00:20;;;;;;;71.57;22.90;;;;;;;0.89;100.00;101939.63;5037820;28;20055;-68
2023/01/26 10:02:55;;;;;;;77.67;25.03;;;;;;;1.17;100.00;101948.06;5041409;28;20120;-68
2023/01/26 10:06:14;;;;;;;70.50;22.60;;;;;;;1.08;100.00;101948.50;5050111;28;20036;-68
2023/01/26 10:08:42;;;;;;;72.80;23.23;;;;;;;1.27;100.00;101941.38;4966011;28;20030;-68
2023/01/26 10:11:43;;;;;;;73.40;24.20;;;;;;;1.02;100.00;101946.13;5062182;28;20083;-68
2023/01/26 10:14:18;;;;;;;91.80;26.77;;;;;;;1.14;100.00;101950.88;5018812;28;20036;-68
2023/01/26 10:16:47;;;;;;;86.33;24.40;;;;;;;0.81;100.00;101948.84;5044579;28;20536;-67
2023/01/26 10:19:37;;;;;;;85.17;24.63;;;;;;;0.82;100.00;101945.22;5041351;28;20079;-68
2023/01/26 10:22:11;;;;;;;86.97;25.37;;;;;;;1.16;100.00;101942.81;5049542;28;20028;-68
2023/01/26 10:24:38;;;;;;;87.67;24.13;;;;;;;1.25;100.00;101948.59;5054748;28;20036;-68
2023/01/26 10:27:10;;;;;;;84.93;24.07;;;;;;;1.24;100.00;101938.88;5043891;28;20054;-68
2023/01/26 10:29:35;;;;;;;73.83;25.37;;;;;;;1.33;100.00;101946.41;5047623;28;20119;-68
2023/01/26 10:32:01;;;;;;;76.90;21.92;;;;;;;1.48;100.00;101933.28;5049631;28;20112;-68
2023/01/26 10:34:27;;;;;;;83.75;23.95;;;;;;;1.36;100.00;101934.72;5044102;28;20423;-68
2023/01/26 10:37:00;;;;;;;67.63;22.97;;;;;;;1.51;100.00;101933.16;5054060;28;20025;-67
2023/01/26 10:39:26;;;;;;;78.57;25.77;;;;;;;1.58;100.00;101932.78;5047698;28;20050;-68
2023/01/26 10:42:00;;;;;;;76.23;25.17;;;;;;;1.73;100.00;101917.81;5039392;28;20025;-68
2023/01/26 10:44:30;;;;;;;81.43;25.52;;;;;;;1.57;100.00;101922.19;5046521;28;20025;-68
2023/01/26 10:47:16;;;;;;;68.70;22.43;;;;;;;1.64;100.00;101912.94;5047878;28;20139;-67
2023/01/26 10:49:42;;;;;;;91.13;25.85;;;;;;;1.58;100.00;101908.75;5029809;28;20478;-67
2023/01/26 10:52:17;;;;;;;79.90;23.75;;;;;;;1.70;100.00;101907.28;5038681;28;20059;-68
2023/01/26 10:54:44;;;;;;;133.40;33.45;;;;;;;1.62;100.00;101914.78;5045152;28;20044;-68
2023/01/26 10:57:22;;;;;;;109.90;30.40;;;;;;;1.62;100.00;101917.47;5051490;28;20039;-69
2023/01/26 10:59:55;;;;;;;89.07;26.13;;;;;;;1.40;100.00;101922.13;5054047;28;20129;-69
2023/01/26 11:02:27;;;;;;;114.57;31.30;;;;;;;1.63;100.00;101927.22;5046459;28;20033;-68
2023/01/26 11:05:07;;;;;;;114.60;31.02;;;;;;;1.39;100.00;101933.72;5051553;28;20036;-69
2023/01/26 11:07:44;;;;;;;108.80;29.77;;;;;;;1.31;100.00;101926.97;5040738;28;20653;-69
2023/01/26 11:10:19;;;;;;;114.57;28.83;;;;;;;1.47;100.00;101931.56;5056126;28;20036;-68
2023/01/26 11:12:44;;;;;;;99.97;29.07;;;;;;;1.57;100.00;101932.84;5060757;28;20108;-68
2023/01/26 11:15:26;;;;;;;122.00;29.97;;;;;;;1.61;100.00;101934.41;5057616;28;20120;-68
2023/01/26 11:17:55;;;;;;;132.65;33.63;;;;;;;1.54;100.00;101943.66;5059233;28;20024;-68
2023/01/26 11:20:38;;;;;;;159.00;36.33;;;;;;;1.53;100.00;101931.25;5062432;28;20120;-67
2023/01/26 11:23:14;;;;;;;119.27;31.50;;;;;;;1.70;100.00;101923.31;5054020;28;20020;-67
2023/01/26 11:26:06;;;;;;;131.97;30.87;;;;;;;1.78;100.00;101910.44;5039680;28;20024;-68
2023/01/26 11:28:53;;;;;;;196.07;37.35;;;;;;;1.56;100.00;101917.75;5038845;28;20028;-67
2023/01/26 11:31:37;;;;;;;167.67;29.40;;;;;;;1.65;100.00;101922.66;5038119;28;20044;-68
2023/01/26 11:34:17;;;;;;;240.10;37.33;;;;;;;1.58;100.00;101929.25;5040091;28;20021;-68
2023/01/26 11:37:21;;;;;;;247.83;37.80;;;;;;;1.65;100.00;101911.97;5046419;28;20032;-68
2023/01/26 11:40:13;;;;;;;174.93;30.37;;;;;;;1.83;100.00;101897.72;4983230;28;20085;-67
2023/01/26 11:43:12;;;;;;;212.77;34.57;;;;;;;1.98;100.00;101905.91;4956340;28;20027;-69
2023/01/26 11:45:51;;;;;;;253.43;36.13;;;;;;;1.87;100.00;101893.94;5052667;28;20095;-70
2023/01/26 11:48:35;;;;;;;169.63;33.83;;;;;;;1.94;100.00;101888.28;5030499;28;20548;-67